Dario Filipe — CUHY7 — position and weather

sailwx.info

Track history (hours):
 
Tides and Currents Weather Stations Pressure Air Temp Water Temp Dewpoint Dewpoint Depression Visibility Wind Speed Wind Dir Waves Ship Positions

Dario Filipe

Last reported at 2016-Feb-08 16:17 UTC. Time now 2016-Feb-11 23:16 UTC.
Position N 38°42' W 010°17'.

Length 24 m.

Type: Fishing. MMSI: 263414640.

Date/timePositionNaut miles runAvg speedWind from/ knotsBaromVisibWave heightAir tempDewpointWater temp
2016-Feb-08 16:17N 38°42' W 010°17'6 8.7
2016-Feb-08 15:32N 38°46' W 010°10'7 7.4
2016-Feb-08 14:32N 38°51' W 010°03'8 8.0
2016-Feb-08 13:33N 38°56' W 009°55'8 8.0
2016-Feb-08 12:33N 39°01' W 009°47'8 8.2
2016-Feb-08 11:33N 39°06' W 009°39'8 8.4
2016-Feb-08 10:33N 39°13' W 009°32'9 8.5
2016-Feb-08 09:32N 39°19' W 009°24'3 2.8
2016-Feb-08 08:33N 39°21' W 009°22'0 0.0
2016-Feb-08 07:32N 39°21' W 009°22'0 0.0
2016-Feb-08 06:33N 39°21' W 009°22'0 0.0
2016-Feb-08 05:33N 39°21' W 009°22'0 0.0
2016-Feb-08 04:32N 39°21' W 009°22'0 0.0
2016-Feb-08 03:32N 39°21' W 009°22'0 0.0
2016-Feb-08 02:26N 39°21' W 009°22'0 0.0
2016-Feb-08 01:32N 39°21' W 009°22'0 0.0
2016-Feb-08 00:29N 39°21' W 009°22'0 0.0
2016-Feb-07 23:32N 39°21' W 009°22'0 0.0
2016-Feb-07 22:32N 39°21' W 009°22'0 0.0
2016-Feb-07 21:33N 39°21' W 009°22'0 0.0
2016-Feb-07 20:32N 39°21' W 009°22'0 0.0
2016-Feb-07 19:26N 39°21' W 009°22'0 0.0
2016-Feb-07 18:32N 39°21' W 009°22'0 0.0
2016-Feb-07 17:32N 39°21' W 009°22'0 0.0
2016-Feb-07 16:32N 39°21' W 009°22'0 0.0
2016-Feb-07 15:32N 39°21' W 009°22'0 0.0
2016-Feb-07 14:29N 39°21' W 009°22'0 0.0
2016-Feb-07 13:29N 39°21' W 009°22'0 0.0
2016-Feb-07 12:30N 39°21' W 009°22'0 0.0
2016-Feb-07 11:29N 39°21' W 009°22'0 0.0
2016-Feb-07 10:29N 39°21' W 009°22'0 0.0
2016-Feb-07 09:32N 39°21' W 009°22'0 0.0
2016-Feb-07 08:29N 39°21' W 009°22'0 0.0
2016-Feb-07 07:16N 39°21' W 009°22'0 0.0
2016-Feb-07 06:29N 39°21' W 009°22'0 0.0
2016-Feb-07 05:32N 39°21' W 009°22'0 0.0
2016-Feb-07 04:32N 39°21' W 009°22'0 0.0
2016-Feb-07 03:32N 39°21' W 009°22'0 0.0
2016-Feb-07 02:32N 39°21' W 009°22'0 0.0
2016-Feb-07 01:31N 39°21' W 009°22'0 0.0
2016-Feb-07 00:32N 39°21' W 009°22'0 0.0
2016-Feb-06 23:32N 39°21' W 009°22'0 0.0
2016-Feb-06 22:32N 39°21' W 009°22'0 0.0
2016-Feb-06 21:29N 39°21' W 009°22'0 0.0
2016-Feb-06 20:33N 39°21' W 009°22'0 0.0
2016-Feb-06 19:33N 39°21' W 009°22'0 0.0
2016-Feb-06 18:29N 39°21' W 009°22'0 0.0
2016-Feb-06 17:33N 39°21' W 009°22'0 0.0
2016-Feb-06 16:33N 39°21' W 009°22'0 0.0
2016-Feb-06 15:32N 39°21' W 009°22'0 0.0
2016-Feb-06 14:27N 39°21' W 009°22'0 0.0
2016-Feb-06 13:30N 39°21' W 009°22'0 0.0
2016-Feb-06 12:29N 39°21' W 009°22'  
2016-Feb-02 17:22N 39°21' W 009°22'0 0.3
2016-Feb-02 16:28N 39°21' W 009°22'0 0.0
2016-Feb-02 15:28N 39°21' W 009°22'0 0.0
2016-Feb-02 14:28N 39°21' W 009°22'0 0.2
2016-Feb-02 13:31N 39°21' W 009°22'0 0.0
2016-Feb-02 12:31N 39°21' W 009°22'0 0.0
2016-Feb-02 11:16N 39°21' W 009°22'0 0.0
2016-Feb-02 10:31N 39°21' W 009°22'0 0.0
2016-Feb-02 09:28N 39°21' W 009°22'0 0.0
2016-Feb-02 08:31N 39°21' W 009°22'0 0.0
2016-Feb-02 07:28N 39°21' W 009°22'0 0.0
2016-Feb-02 06:31N 39°21' W 009°22'0 0.0
2016-Feb-02 05:31N 39°21' W 009°22'0 0.0
2016-Feb-02 04:29N 39°21' W 009°22'0 0.0
2016-Feb-02 03:28N 39°21' W 009°22'0 0.0
2016-Feb-02 02:31N 39°21' W 009°22'0 0.0
2016-Feb-02 01:33N 39°21' W 009°22'0 0.0
2016-Feb-02 00:30N 39°21' W 009°22'0 0.0
2016-Feb-01 23:29N 39°21' W 009°22'0 0.0
2016-Feb-01 22:27N 39°21' W 009°22'0 0.0
2016-Feb-01 21:31N 39°21' W 009°22'0 0.0
2016-Feb-01 20:30N 39°21' W 009°22'0 0.0
2016-Feb-01 19:31N 39°21' W 009°22'0 0.0
2016-Feb-01 16:31N 39°21' W 009°22'0 0.0
2016-Feb-01 15:28N 39°21' W 009°22'0 0.0
2016-Feb-01 14:31N 39°21' W 009°22'0 0.0
2016-Feb-01 13:28N 39°21' W 009°22'0 0.0
2016-Feb-01 12:28N 39°21' W 009°22'0 0.0
2016-Feb-01 11:31N 39°21' W 009°22'0 0.0
2016-Feb-01 10:31N 39°21' W 009°22'0 0.0
2016-Feb-01 09:28N 39°21' W 009°22'0 0.0
2016-Feb-01 08:33N 39°21' W 009°22'0 0.0
2016-Feb-01 07:25N 39°21' W 009°22'0 0.0
2016-Feb-01 06:28N 39°21' W 009°22'0 0.0
2016-Feb-01 05:31N 39°21' W 009°22'0 0.0
2016-Feb-01 04:33N 39°21' W 009°22'0 0.0
2016-Feb-01 03:31N 39°21' W 009°22'0 0.0
2016-Feb-01 02:31N 39°21' W 009°22'0 0.0
2016-Feb-01 01:32N 39°21' W 009°22'0 0.0
2016-Feb-01 00:33N 39°21' W 009°22'0 0.3
2016-Jan-31 23:30N 39°21' W 009°22'0 0.0
2016-Jan-31 22:33N 39°21' W 009°22'0 0.0
2016-Jan-31 21:27N 39°21' W 009°22'0 0.0
2016-Jan-31 20:33N 39°21' W 009°22'1 1.4
2016-Jan-31 19:33N 39°20' W 009°24'9 8.6
2016-Jan-31 18:33N 39°17' W 009°34'10 9.1
2016-Jan-31 17:27N 39°13' W 009°46'8 8.2
2016-Jan-31 16:31N 39°09' W 009°55'9 9.4
2016-Jan-31 15:31N 39°06' W 010°06'9 9.0
2016-Jan-31 14:31N 39°02' W 010°16'9 8.6
2016-Jan-31 13:31N 38°58' W 010°26'  
Track history (hours):
 
Tides and Currents Weather Stations Pressure Air Temp Water Temp Dewpoint Dewpoint Depression Visibility Wind Speed Wind Dir Waves Ship Positions

Dario Filipe

Last reported at 2016-Feb-08 16:17 UTC. Time now 2016-Feb-11 23:16 UTC.
Position N 38°42' W 010°17'.

Length 24 m.

Type: Fishing. MMSI: 263414640.

Date/timePositionNaut miles runAvg speedWind from/ knotsBaromVisibWave heightAir tempDewpointWater temp
2016-Feb-08 16:17N 38°42' W 010°17'6 8.7
2016-Feb-08 15:32N 38°46' W 010°10'7 7.4
2016-Feb-08 14:32N 38°51' W 010°03'8 8.0
2016-Feb-08 13:33N 38°56' W 009°55'8 8.0
2016-Feb-08 12:33N 39°01' W 009°47'8 8.2
2016-Feb-08 11:33N 39°06' W 009°39'8 8.4
2016-Feb-08 10:33N 39°13' W 009°32'9 8.5
2016-Feb-08 09:32N 39°19' W 009°24'3 2.8
2016-Feb-08 08:33N 39°21' W 009°22'0 0.0
2016-Feb-08 07:32N 39°21' W 009°22'0 0.0
2016-Feb-08 06:33N 39°21' W 009°22'0 0.0
2016-Feb-08 05:33N 39°21' W 009°22'0 0.0
2016-Feb-08 04:32N 39°21' W 009°22'0 0.0
2016-Feb-08 03:32N 39°21' W 009°22'0 0.0
2016-Feb-08 02:26N 39°21' W 009°22'0 0.0
2016-Feb-08 01:32N 39°21' W 009°22'0 0.0
2016-Feb-08 00:29N 39°21' W 009°22'0 0.0
2016-Feb-07 23:32N 39°21' W 009°22'0 0.0
2016-Feb-07 22:32N 39°21' W 009°22'0 0.0
2016-Feb-07 21:33N 39°21' W 009°22'0 0.0
2016-Feb-07 20:32N 39°21' W 009°22'0 0.0
2016-Feb-07 19:26N 39°21' W 009°22'0 0.0
2016-Feb-07 18:32N 39°21' W 009°22'0 0.0
2016-Feb-07 17:32N 39°21' W 009°22'0 0.0
2016-Feb-07 16:32N 39°21' W 009°22'0 0.0
2016-Feb-07 15:32N 39°21' W 009°22'0 0.0
2016-Feb-07 14:29N 39°21' W 009°22'0 0.0
2016-Feb-07 13:29N 39°21' W 009°22'0 0.0
2016-Feb-07 12:30N 39°21' W 009°22'0 0.0
2016-Feb-07 11:29N 39°21' W 009°22'0 0.0
2016-Feb-07 10:29N 39°21' W 009°22'0 0.0
2016-Feb-07 09:32N 39°21' W 009°22'0 0.0
2016-Feb-07 08:29N 39°21' W 009°22'0 0.0
2016-Feb-07 07:16N 39°21' W 009°22'0 0.0
2016-Feb-07 06:29N 39°21' W 009°22'0 0.0
2016-Feb-07 05:32N 39°21' W 009°22'0 0.0
2016-Feb-07 04:32N 39°21' W 009°22'0 0.0
2016-Feb-07 03:32N 39°21' W 009°22'0 0.0
2016-Feb-07 02:32N 39°21' W 009°22'0 0.0
2016-Feb-07 01:31N 39°21' W 009°22'0 0.0
2016-Feb-07 00:32N 39°21' W 009°22'0 0.0
2016-Feb-06 23:32N 39°21' W 009°22'0 0.0
2016-Feb-06 22:32N 39°21' W 009°22'0 0.0
2016-Feb-06 21:29N 39°21' W 009°22'0 0.0
2016-Feb-06 20:33N 39°21' W 009°22'0 0.0
2016-Feb-06 19:33N 39°21' W 009°22'0 0.0
2016-Feb-06 18:29N 39°21' W 009°22'0 0.0
2016-Feb-06 17:33N 39°21' W 009°22'0 0.0
2016-Feb-06 16:33N 39°21' W 009°22'0 0.0
2016-Feb-06 15:32N 39°21' W 009°22'0 0.0
2016-Feb-06 14:27N 39°21' W 009°22'0 0.0
2016-Feb-06 13:30N 39°21' W 009°22'0 0.0
2016-Feb-06 12:29N 39°21' W 009°22'  
2016-Feb-02 17:22N 39°21' W 009°22'0 0.3
2016-Feb-02 16:28N 39°21' W 009°22'0 0.0
2016-Feb-02 15:28N 39°21' W 009°22'0 0.0
2016-Feb-02 14:28N 39°21' W 009°22'0 0.2
2016-Feb-02 13:31N 39°21' W 009°22'0 0.0
2016-Feb-02 12:31N 39°21' W 009°22'0 0.0
2016-Feb-02 11:16N 39°21' W 009°22'0 0.0
2016-Feb-02 10:31N 39°21' W 009°22'0 0.0
2016-Feb-02 09:28N 39°21' W 009°22'0 0.0
2016-Feb-02 08:31N 39°21' W 009°22'0 0.0
2016-Feb-02 07:28N 39°21' W 009°22'0 0.0
2016-Feb-02 06:31N 39°21' W 009°22'0 0.0
2016-Feb-02 05:31N 39°21' W 009°22'0 0.0
2016-Feb-02 04:29N 39°21' W 009°22'0 0.0
2016-Feb-02 03:28N 39°21' W 009°22'0 0.0
2016-Feb-02 02:31N 39°21' W 009°22'0 0.0
2016-Feb-02 01:33N 39°21' W 009°22'0 0.0
2016-Feb-02 00:30N 39°21' W 009°22'0 0.0
2016-Feb-01 23:29N 39°21' W 009°22'0 0.0
2016-Feb-01 22:27N 39°21' W 009°22'0 0.0
2016-Feb-01 21:31N 39°21' W 009°22'0 0.0
2016-Feb-01 20:30N 39°21' W 009°22'0 0.0
2016-Feb-01 19:31N 39°21' W 009°22'0 0.0
2016-Feb-01 16:31N 39°21' W 009°22'0 0.0
2016-Feb-01 15:28N 39°21' W 009°22'0 0.0
2016-Feb-01 14:31N 39°21' W 009°22'0 0.0
2016-Feb-01 13:28N 39°21' W 009°22'0 0.0
2016-Feb-01 12:28N 39°21' W 009°22'0 0.0
2016-Feb-01 11:31N 39°21' W 009°22'0 0.0
2016-Feb-01 10:31N 39°21' W 009°22'0 0.0
2016-Feb-01 09:28N 39°21' W 009°22'0 0.0
2016-Feb-01 08:33N 39°21' W 009°22'0 0.0
2016-Feb-01 07:25N 39°21' W 009°22'0 0.0
2016-Feb-01 06:28N 39°21' W 009°22'0 0.0
2016-Feb-01 05:31N 39°21' W 009°22'0 0.0
2016-Feb-01 04:33N 39°21' W 009°22'0 0.0
2016-Feb-01 03:31N 39°21' W 009°22'0 0.0
2016-Feb-01 02:31N 39°21' W 009°22'0 0.0
2016-Feb-01 01:32N 39°21' W 009°22'0 0.0
2016-Feb-01 00:33N 39°21' W 009°22'0 0.3
2016-Jan-31 23:30N 39°21' W 009°22'0 0.0
2016-Jan-31 22:33N 39°21' W 009°22'0 0.0
2016-Jan-31 21:27N 39°21' W 009°22'0 0.0
2016-Jan-31 20:33N 39°21' W 009°22'1 1.4
2016-Jan-31 19:33N 39°20' W 009°24'9 8.6
2016-Jan-31 18:33N 39°17' W 009°34'10 9.1
2016-Jan-31 17:27N 39°13' W 009°46'8 8.2
2016-Jan-31 16:31N 39°09' W 009°55'9 9.4
2016-Jan-31 15:31N 39°06' W 010°06'9 9.0
2016-Jan-31 14:31N 39°02' W 010°16'9 8.6
2016-Jan-31 13:31N 38°58' W 010°26'  

Dump ship's entire track history